createdAt,value
2018-12-26T17:48:27.688Z,43.57
2018-12-26T17:50:58.299Z,47.03
2018-12-26T17:53:40.445Z,44.37
2018-12-26T17:56:41.063Z,46.53
2018-12-26T17:59:29.183Z,46.50
2018-12-26T18:02:27.190Z,48.07
2018-12-26T18:04:57.265Z,48.27
2018-12-26T18:07:27.272Z,47.23
2018-12-26T18:09:57.571Z,49.33
2018-12-26T18:12:27.687Z,46.13
2018-12-26T18:14:58.071Z,47.20
2018-12-26T18:17:31.297Z,46.87
2018-12-26T18:20:01.461Z,49.27
2018-12-26T18:22:31.597Z,46.93
2018-12-26T18:25:01.735Z,55.20
2018-12-26T18:27:32.126Z,47.73
2018-12-26T18:30:02.194Z,49.00
2018-12-26T18:32:37.053Z,52.93
2018-12-26T18:35:10.024Z,49.37
2018-12-26T18:37:40.194Z,53.30
2018-12-26T18:40:10.648Z,50.47
2018-12-26T18:42:40.934Z,47.27
2018-12-26T18:45:11.070Z,44.50
2018-12-26T18:47:41.683Z,46.73
2018-12-26T18:50:57.523Z,47.47
2018-12-26T18:53:27.841Z,47.20
2018-12-26T18:55:57.962Z,51.07
2018-12-26T18:58:28.144Z,46.67
2018-12-26T19:00:58.324Z,48.07
2018-12-26T19:03:28.445Z,49.23
2018-12-26T19:05:58.622Z,48.07
2018-12-26T19:08:28.723Z,49.13
2018-12-26T19:10:59.555Z,45.73
2018-12-26T19:13:30.092Z,47.67
2018-12-26T19:16:00.747Z,49.87
2018-12-26T19:18:31.324Z,51.60
2018-12-26T19:21:01.483Z,50.27
2018-12-26T19:23:31.610Z,47.45
2018-12-26T19:26:05.033Z,49.87
2018-12-26T19:28:44.977Z,48.53
2018-12-26T19:31:15.601Z,54.30
2018-12-26T19:33:45.831Z,46.97
2018-12-26T19:36:16.694Z,47.60
2018-12-26T19:38:46.995Z,46.80
2018-12-26T19:41:17.295Z,54.23
2018-12-26T19:43:47.634Z,48.37
2018-12-26T19:46:17.907Z,45.10
2018-12-26T19:48:48.128Z,46.50
2018-12-26T19:51:18.407Z,48.33
2018-12-26T19:53:48.983Z,45.10
2018-12-26T19:56:19.598Z,47.77
2018-12-26T19:58:49.873Z,48.30
2018-12-26T20:01:20.174Z,48.47
2018-12-26T20:03:50.834Z,46.50
2018-12-26T20:06:21.081Z,49.60
2018-12-26T20:08:51.809Z,45.93
2018-12-26T20:11:22.223Z,48.43
2018-12-26T20:13:52.501Z,48.67
2018-12-26T20:16:22.803Z,50.80
2018-12-26T20:18:53.084Z,50.63
2018-12-26T20:21:23.610Z,45.00
2018-12-26T20:23:54.278Z,46.80
2018-12-26T20:26:26.200Z,48.13
2018-12-26T20:28:56.812Z,47.97
2018-12-26T20:31:27.144Z,42.83
2018-12-26T20:33:57.449Z,48.47
2018-12-26T20:36:27.729Z,44.13
2018-12-26T20:38:58.019Z,46.73
2018-12-26T20:41:28.219Z,44.77
2018-12-26T20:43:58.491Z,45.70
2018-12-26T20:46:28.910Z,44.60
2018-12-26T20:48:59.158Z,44.73
2018-12-26T20:51:29.318Z,44.73
2018-12-26T20:53:59.524Z,43.47
2018-12-26T20:56:29.646Z,46.00
2018-12-26T20:58:59.873Z,47.07
2018-12-26T21:01:30.049Z,50.27
2018-12-26T21:04:00.279Z,49.23
2018-12-26T21:06:30.799Z,47.40
2018-12-26T21:09:02.123Z,43.47
2018-12-26T21:11:33.509Z,50.03
2018-12-26T21:14:03.698Z,52.37
2018-12-26T21:16:34.303Z,52.73
2018-12-26T21:19:05.861Z,52.03
2018-12-26T21:22:00.926Z,49.90
2018-12-26T21:24:31.256Z,50.13
2018-12-26T21:27:01.569Z,50.10
2018-12-26T21:29:33.935Z,52.63
2018-12-26T21:32:04.818Z,54.00
2018-12-26T21:34:34.952Z,50.00
2018-12-26T21:37:08.360Z,53.23
2018-12-26T21:43:15.447Z,49.57
2018-12-26T21:46:11.726Z,52.97
2018-12-26T21:48:41.834Z,50.80
2018-12-26T21:51:11.898Z,50.33
2018-12-26T21:53:42.019Z,50.93
2018-12-26T21:56:12.122Z,48.50
2018-12-26T21:58:42.249Z,48.47
2018-12-26T22:01:12.340Z,52.40
2018-12-26T22:03:42.475Z,50.13
2018-12-26T22:06:12.460Z,51.13
2018-12-26T22:08:50.305Z,50.70
2018-12-26T22:11:20.417Z,47.90
2018-12-26T22:13:50.399Z,50.60
2018-12-26T22:16:20.695Z,54.63
2018-12-26T22:18:50.994Z,54.53
2018-12-26T22:21:22.092Z,53.73
2018-12-26T22:23:52.213Z,54.07
2018-12-26T22:26:24.105Z,52.83
2018-12-26T22:28:54.518Z,57.33
2018-12-26T22:31:24.649Z,57.60
2018-12-26T22:33:54.621Z,61.07
2018-12-26T22:36:24.640Z,55.67
2018-12-26T22:38:54.603Z,53.73
2018-12-26T22:41:24.876Z,52.62
2018-12-26T22:43:54.843Z,52.17
2018-12-26T22:46:24.870Z,50.13
2018-12-26T22:48:54.813Z,51.13
2018-12-26T22:51:24.870Z,49.30
2018-12-26T22:53:54.857Z,51.80
2018-12-26T22:56:24.845Z,55.83
2018-12-26T22:58:54.849Z,54.47
2018-12-26T23:01:25.232Z,55.77
2018-12-26T23:03:55.245Z,54.33
2018-12-26T23:06:25.235Z,57.03
2018-12-26T23:08:55.265Z,53.53
2018-12-26T23:11:25.585Z,63.77
2018-12-26T23:13:56.169Z,54.57
2018-12-26T23:16:26.165Z,54.30
2018-12-26T23:18:58.102Z,54.13
2018-12-26T23:21:28.276Z,55.00
2018-12-26T23:23:58.244Z,52.93
2018-12-26T23:26:28.278Z,52.40
2018-12-26T23:28:58.757Z,61.90
2018-12-26T23:31:28.801Z,59.73
2018-12-26T23:33:59.012Z,51.93
2018-12-26T23:36:28.992Z,47.00
2018-12-26T23:38:59.009Z,51.70
2018-12-26T23:41:30.041Z,53.00
2018-12-26T23:44:00.600Z,51.97
2018-12-26T23:46:30.545Z,53.00
2018-12-26T23:49:00.822Z,54.20
2018-12-26T23:51:30.822Z,47.97
2018-12-26T23:54:00.786Z,53.73
2018-12-26T23:56:31.325Z,54.33
2018-12-26T23:59:01.305Z,58.60
